createdAt,value
2024-03-05T00:00:39.103Z,99794.16
2024-03-05T00:03:09.898Z,99791.25
2024-03-05T00:05:39.604Z,99788.66
2024-03-05T00:08:16.292Z,99788.67
2024-03-05T00:10:45.640Z,99787.25
2024-03-05T00:13:16.822Z,99790.41
2024-03-05T00:15:46.983Z,99793.14
2024-03-05T00:18:22.481Z,99795.52
2024-03-05T00:20:53.942Z,99795.31
2024-03-05T00:23:25.984Z,99797.85
2024-03-05T00:25:58.284Z,99797.20
2024-03-05T00:28:28.058Z,99792.40
2024-03-05T00:30:59.459Z,99798.95
2024-03-05T00:33:31.205Z,99798.94
2024-03-05T00:36:00.763Z,99799.92
2024-03-05T00:38:33.738Z,99800.32
2024-03-05T00:41:08.250Z,99804.27
2024-03-05T00:43:39.942Z,99804.67
2024-03-05T00:46:11.648Z,99803.90
2024-03-05T00:48:41.292Z,99802.39
2024-03-05T00:51:10.982Z,99797.91
2024-03-05T00:53:43.318Z,99799.41
2024-03-05T00:56:14.904Z,99800.48
2024-03-05T00:58:47.358Z,99798.91
2024-03-05T01:01:17.658Z,99800.63
2024-03-05T01:03:49.283Z,99798.42
2024-03-05T01:06:20.238Z,99799.16
2024-03-05T01:08:53.324Z,99799.55
2024-03-05T01:11:25.462Z,99803.42
2024-03-05T01:13:57.460Z,99805.08
2024-03-05T01:16:27.816Z,99807.55
2024-03-05T01:18:58.184Z,99811.23
2024-03-05T01:21:29.820Z,99807.16
2024-03-05T01:24:04.571Z,99810.95
2024-03-05T01:26:35.981Z,99807.01
2024-03-05T01:29:08.821Z,99800.55
2024-03-05T01:31:40.280Z,99803.44
2024-03-05T01:34:13.618Z,99802.98
2024-03-05T01:36:46.122Z,99803.27
2024-03-05T01:39:19.897Z,99807.15
2024-03-05T01:41:54.028Z,99804.41
2024-03-05T01:44:23.949Z,99808.00
2024-03-05T01:46:57.931Z,99804.52
2024-03-05T01:49:28.344Z,99803.61
2024-03-05T01:52:02.915Z,99800.61
2024-03-05T01:54:33.966Z,99799.10
2024-03-05T01:57:03.330Z,99800.73
2024-03-05T01:59:36.478Z,99795.11
2024-03-05T02:02:11.787Z,99797.50
2024-03-05T02:04:45.880Z,99802.52
2024-03-05T02:07:19.916Z,99804.79
2024-03-05T02:09:49.917Z,99808.89
2024-03-05T02:12:20.413Z,99807.04
2024-03-05T02:14:53.135Z,99803.54
2024-03-05T02:17:28.436Z,99803.13
2024-03-05T02:19:58.454Z,99805.45
2024-03-05T02:22:28.531Z,99807.98
2024-03-05T02:25:01.092Z,99805.90
2024-03-05T02:27:39.936Z,99805.74
2024-03-05T02:30:13.961Z,99812.09
2024-03-05T02:32:43.691Z,99812.55
2024-03-05T02:35:15.817Z,99812.05
2024-03-05T02:37:45.179Z,99818.59
2024-03-05T02:40:17.321Z,99822.48
2024-03-05T02:42:48.718Z,99824.20
2024-03-05T02:45:18.935Z,99824.89
2024-03-05T02:47:49.753Z,99826.59
2024-03-05T02:50:20.775Z,99830.45
2024-03-05T02:52:51.515Z,99829.65
2024-03-05T02:55:24.455Z,99838.97
2024-03-05T02:57:55.283Z,99837.86
2024-03-05T03:00:25.873Z,99840.63
2024-03-05T03:03:00.186Z,99839.73
2024-03-05T03:05:33.040Z,99840.81
2024-03-05T03:08:02.457Z,99839.82
2024-03-05T03:10:36.103Z,99837.46
2024-03-05T03:13:05.924Z,99837.59
2024-03-05T03:15:37.593Z,99836.42
2024-03-05T03:18:29.227Z,99840.56
2024-03-05T03:20:58.763Z,99841.70
2024-03-05T03:23:31.292Z,99842.45
2024-03-05T03:26:02.982Z,99849.35
2024-03-05T03:28:35.292Z,99849.05
2024-03-05T03:31:07.646Z,99844.29
2024-03-05T03:33:37.841Z,99843.49
2024-03-05T03:36:07.993Z,99851.01
2024-03-05T03:38:40.972Z,99846.46
2024-03-05T03:41:17.935Z,99851.14
2024-03-05T03:43:50.620Z,99851.39
2024-03-05T03:46:20.345Z,99847.33
2024-03-05T03:48:52.388Z,99850.73
2024-03-05T03:51:30.777Z,99852.13
2024-03-05T03:54:05.887Z,99850.93
2024-03-05T03:56:35.760Z,99852.27
2024-03-05T03:59:06.329Z,99852.60
2024-03-05T04:01:36.857Z,99858.60
2024-03-05T04:04:07.212Z,99862.66
2024-03-05T04:06:38.953Z,99861.14
2024-03-05T04:09:11.266Z,99866.30
2024-03-05T04:11:44.206Z,99867.94
2024-03-05T04:14:16.774Z,99873.02
2024-03-05T04:16:47.262Z,99871.83
2024-03-05T04:19:17.646Z,99877.42
2024-03-05T04:21:49.963Z,99871.63
2024-03-05T04:24:19.711Z,99874.38
2024-03-05T04:26:55.260Z,99877.00
2024-03-05T04:29:33.505Z,99875.12
2024-03-05T04:32:10.521Z,99874.70
2024-03-05T04:35:02.104Z,99876.06
2024-03-05T04:37:53.080Z,99880.02
2024-03-05T04:40:25.492Z,99881.75
2024-03-05T04:43:15.006Z,99880.87
2024-03-05T04:45:47.264Z,99881.39
2024-03-05T04:48:16.979Z,99879.57
2024-03-05T04:50:47.666Z,99883.05
2024-03-05T04:53:19.907Z,99881.85
2024-03-05T04:55:49.519Z,99884.09
2024-03-05T04:58:24.878Z,99884.05
2024-03-05T05:00:57.184Z,99879.61
2024-03-05T05:03:28.377Z,99883.98
2024-03-05T05:06:02.419Z,99885.38
2024-03-05T05:08:39.095Z,99881.77
2024-03-05T05:11:10.128Z,99884.08
2024-03-05T05:13:46.227Z,99885.39
2024-03-05T05:16:17.613Z,99888.02
2024-03-05T05:18:47.428Z,99886.61
2024-03-05T05:21:18.272Z,99892.05
2024-03-05T05:23:58.995Z,99890.91
2024-03-05T05:26:30.577Z,99892.84
2024-03-05T05:29:00.798Z,99888.91
2024-03-05T05:31:31.432Z,99895.46
2024-03-05T05:34:02.700Z,99897.38
2024-03-05T05:36:35.387Z,99899.80
2024-03-05T05:39:07.930Z,99895.72
2024-03-05T05:41:39.751Z,99900.52
2024-03-05T05:44:12.467Z,99895.09
2024-03-05T05:46:44.358Z,99892.81
2024-03-05T05:49:35.377Z,99893.31
2024-03-05T05:52:09.620Z,99894.02
2024-03-05T05:54:49.416Z,99896.04
2024-03-05T05:57:19.485Z,99896.29
2024-03-05T05:59:50.402Z,99895.09
2024-03-05T06:02:30.669Z,99891.42
2024-03-05T06:05:05.226Z,99890.25
2024-03-05T06:07:42.171Z,99886.94
2024-03-05T06:10:13.983Z,99888.80
2024-03-05T06:12:53.559Z,99890.67
2024-03-05T06:15:25.578Z,99888.39
2024-03-05T06:17:57.499Z,99888.27
2024-03-05T06:20:26.222Z,99888.17
2024-03-05T06:23:00.083Z,99886.49
2024-03-05T06:25:32.067Z,99890.52
2024-03-05T06:28:03.951Z,99892.20
2024-03-05T06:30:35.723Z,99897.91
2024-03-05T06:33:11.716Z,99900.85
2024-03-05T06:35:41.905Z,99905.34
2024-03-05T06:38:10.271Z,99904.14
2024-03-05T06:40:40.458Z,99903.94
2024-03-05T06:43:31.060Z,99909.74
2024-03-05T06:46:07.121Z,99910.25
2024-03-05T06:48:44.209Z,99912.48
2024-03-05T06:51:37.206Z,99914.30
2024-03-05T06:54:29.048Z,99914.27
2024-03-05T06:57:00.831Z,99912.80
2024-03-05T06:59:31.234Z,99915.80
2024-03-05T07:02:02.061Z,99918.46
2024-03-05T07:04:31.543Z,99927.44
2024-03-05T07:07:02.657Z,99919.68
2024-03-05T07:09:33.511Z,99922.78
2024-03-05T07:12:09.227Z,99920.11
2024-03-05T07:14:40.997Z,99923.25
2024-03-05T07:17:12.263Z,99921.54
2024-03-05T07:19:44.612Z,99925.70
2024-03-05T07:22:15.451Z,99932.14
2024-03-05T07:24:48.018Z,99940.36
2024-03-05T07:27:17.639Z,99946.48
2024-03-05T07:29:48.333Z,99946.21
2024-03-05T07:32:20.030Z,99945.16
2024-03-05T07:34:49.579Z,99942.31
2024-03-05T07:37:19.826Z,99944.21
2024-03-05T07:39:51.581Z,99946.02
2024-03-05T07:42:24.995Z,99951.39
2024-03-05T07:44:57.737Z,99952.17
2024-03-05T07:47:34.418Z,99955.15
2024-03-05T07:50:07.045Z,99953.87
2024-03-05T07:52:38.696Z,99948.81
2024-03-05T07:55:21.634Z,99950.31
2024-03-05T07:58:12.436Z,99951.30
2024-03-05T08:00:44.417Z,99955.58
2024-03-05T08:03:13.917Z,99956.70
2024-03-05T08:05:44.653Z,99956.42
2024-03-05T08:08:16.245Z,99961.58
2024-03-05T08:10:58.266Z,99966.41
2024-03-05T08:13:35.389Z,99969.10
2024-03-05T08:16:06.176Z,99970.77
2024-03-05T08:18:37.670Z,99970.08
2024-03-05T08:21:09.335Z,99970.10
2024-03-05T08:23:39.550Z,99972.54
2024-03-05T08:26:12.940Z,99972.39
2024-03-05T08:28:47.697Z,99972.77
2024-03-05T08:31:18.428Z,99972.11
2024-03-05T08:33:48.611Z,99973.29
2024-03-05T08:36:20.987Z,99972.98
2024-03-05T08:38:58.265Z,99975.64
2024-03-05T08:41:28.785Z,99972.29
2024-03-05T08:43:59.497Z,99974.17
2024-03-05T08:46:29.098Z,99974.30
2024-03-05T08:49:00.684Z,99966.13
2024-03-05T08:51:33.132Z,99969.18
2024-03-05T08:54:04.810Z,99966.63
2024-03-05T08:56:48.757Z,99970.94
2024-03-05T08:59:20.184Z,99973.51
2024-03-05T09:01:53.970Z,99975.41
2024-03-05T09:04:22.880Z,99974.36
2024-03-05T09:06:52.328Z,99974.16
2024-03-05T09:09:21.903Z,99975.65
2024-03-05T09:11:54.233Z,99975.75
2024-03-05T09:14:24.727Z,99976.91
2024-03-05T09:16:56.749Z,99978.68
2024-03-05T09:19:29.335Z,99983.53
2024-03-05T09:22:05.815Z,99984.67
2024-03-05T09:24:39.708Z,99978.25
2024-03-05T09:27:11.879Z,99980.09
2024-03-05T09:29:44.883Z,99978.45
2024-03-05T09:32:26.159Z,99982.64
2024-03-05T09:35:01.081Z,99983.58
2024-03-05T09:37:38.747Z,99984.73
2024-03-05T09:40:22.456Z,99983.61
2024-03-05T09:42:59.897Z,99982.90
2024-03-05T09:45:32.311Z,99982.87
2024-03-05T09:48:08.294Z,99981.20
2024-03-05T09:50:40.020Z,99979.28
2024-03-05T09:53:15.075Z,99980.39
2024-03-05T09:55:52.274Z,99977.45
2024-03-05T09:58:37.752Z,99979.27
2024-03-05T10:01:10.370Z,99976.72
2024-03-05T10:03:46.322Z,99976.80
2024-03-05T10:06:20.324Z,99977.77
2024-03-05T10:08:51.972Z,99980.02
2024-03-05T10:11:25.439Z,99977.76
2024-03-05T10:13:55.809Z,99976.41
2024-03-05T10:16:27.788Z,99976.21
2024-03-05T10:18:56.823Z,99977.38
2024-03-05T10:21:34.978Z,99975.45
2024-03-05T10:24:07.231Z,99975.57
2024-03-05T10:26:40.484Z,99975.63
2024-03-05T10:29:13.940Z,99977.96
2024-03-05T10:31:46.406Z,99979.41
2024-03-05T10:34:18.686Z,99980.10
2024-03-05T10:36:50.197Z,99981.88
2024-03-05T10:39:20.568Z,99975.61
2024-03-05T10:41:54.031Z,99973.39
2024-03-05T10:44:23.771Z,99968.88
2024-03-05T10:46:54.999Z,99972.89
2024-03-05T10:49:26.880Z,99970.37
2024-03-05T10:52:00.437Z,99968.88
2024-03-05T10:54:32.018Z,99967.70
2024-03-05T10:57:04.991Z,99965.20
2024-03-05T10:59:49.370Z,99963.63
2024-03-05T11:02:18.173Z,99962.73
2024-03-05T11:04:57.925Z,99959.61
2024-03-05T11:07:31.064Z,99961.13
2024-03-05T11:10:03.056Z,99960.17
2024-03-05T11:12:47.732Z,99960.15
2024-03-05T11:15:17.563Z,99952.57
2024-03-05T11:17:58.035Z,99953.46
2024-03-05T11:21:13.651Z,99951.75
2024-03-05T11:24:00.874Z,99946.70
2024-03-05T11:26:33.914Z,99945.92
2024-03-05T11:29:19.108Z,99941.90
2024-03-05T11:31:52.782Z,99940.29
2024-03-05T11:34:23.670Z,99938.70
2024-03-05T11:37:13.200Z,99936.36
2024-03-05T11:39:47.177Z,99935.67
2024-03-05T11:42:21.740Z,99934.13
2024-03-05T11:44:55.128Z,99934.76
2024-03-05T11:47:26.945Z,99932.52
2024-03-05T11:50:05.130Z,99924.86
2024-03-05T11:52:36.351Z,99921.33
2024-03-05T11:55:12.145Z,99917.67
2024-03-05T11:57:43.456Z,99918.09
2024-03-05T12:00:17.910Z,99915.54
2024-03-05T12:02:59.361Z,99912.65
2024-03-05T12:05:32.013Z,99915.39
2024-03-05T12:08:10.401Z,99911.84
2024-03-05T12:10:42.192Z,99909.10
2024-03-05T12:13:20.595Z,99909.92
2024-03-05T12:15:52.291Z,99909.23
2024-03-05T12:18:23.103Z,99902.86
2024-03-05T12:20:57.218Z,99903.48
2024-03-05T12:23:41.301Z,99899.23
2024-03-05T12:26:12.729Z,99892.79
2024-03-05T12:28:42.726Z,99892.56
2024-03-05T12:31:13.183Z,99894.27
2024-03-05T12:33:45.994Z,99895.80
2024-03-05T12:36:17.560Z,99891.05
2024-03-05T12:38:48.068Z,99888.47
2024-03-05T12:41:29.509Z,99892.77
2024-03-05T12:44:01.094Z,99889.75
2024-03-05T12:46:38.806Z,99893.16
2024-03-05T12:49:22.849Z,99890.51
2024-03-05T12:52:03.821Z,99890.58
2024-03-05T12:55:04.967Z,99887.98
2024-03-05T12:57:38.972Z,99884.67
2024-03-05T13:00:14.877Z,99888.39
2024-03-05T13:02:45.060Z,99882.67
2024-03-05T13:05:14.612Z,99885.08
2024-03-05T13:07:47.473Z,99885.64
2024-03-05T13:10:16.944Z,99881.48
2024-03-05T13:12:48.697Z,99886.55
2024-03-05T13:15:20.143Z,99882.27
2024-03-05T13:17:49.404Z,99884.69
2024-03-05T13:20:21.064Z,99880.27
2024-03-05T13:22:55.797Z,99879.01
2024-03-05T13:25:27.396Z,99873.52
2024-03-05T13:28:02.074Z,99876.40
2024-03-05T13:30:34.598Z,99876.46
2024-03-05T13:33:06.424Z,99876.19
2024-03-05T13:35:37.262Z,99876.75
2024-03-05T13:38:09.524Z,99877.07
2024-03-05T13:40:39.143Z,99876.06
2024-03-05T13:43:12.793Z,99883.73
2024-03-05T13:45:42.112Z,99879.10
2024-03-05T13:48:13.004Z,99880.61
2024-03-05T13:51:11.851Z,99885.63
2024-03-05T13:53:44.161Z,99880.55
2024-03-05T13:56:47.420Z,99878.72
2024-03-05T13:59:28.572Z,99877.84
2024-03-05T14:02:00.929Z,99879.31
2024-03-05T14:04:32.563Z,99880.16
2024-03-05T14:07:08.180Z,99886.08
2024-03-05T14:09:41.789Z,99890.01
2024-03-05T14:12:13.424Z,99888.84
2024-03-05T14:18:23.191Z,99891.83
2024-03-05T14:21:14.625Z,99893.02
2024-03-05T14:23:44.301Z,99900.45
2024-03-05T14:26:19.236Z,99898.31
2024-03-05T14:28:51.091Z,99905.39
2024-03-05T14:31:21.114Z,99906.23
2024-03-05T14:33:54.344Z,99908.96
2024-03-05T14:36:27.263Z,99912.49
2024-03-05T14:38:58.963Z,99917.06
2024-03-05T14:41:28.905Z,99919.16
2024-03-05T14:44:11.971Z,99925.95
2024-03-05T14:46:48.831Z,99924.52
2024-03-05T14:49:22.514Z,99922.80
2024-03-05T14:51:55.964Z,99931.83
2024-03-05T14:54:25.503Z,99933.95
2024-03-05T14:56:54.737Z,99931.77
2024-03-05T14:59:25.270Z,99932.73
2024-03-05T15:01:56.308Z,99937.19
2024-03-05T15:04:29.866Z,99937.98
2024-03-05T15:06:59.824Z,99940.98
2024-03-05T15:09:35.043Z,99944.55
2024-03-05T15:12:06.371Z,99944.30
2024-03-05T15:14:35.661Z,99948.56
2024-03-05T15:17:10.851Z,99947.28
2024-03-05T15:19:50.193Z,99949.93
2024-03-05T15:22:27.305Z,99956.15
2024-03-05T15:24:56.745Z,99955.03
2024-03-05T15:27:31.366Z,99959.49
2024-03-05T15:30:02.037Z,99961.17
2024-03-05T15:32:33.842Z,99961.59
2024-03-05T15:35:06.296Z,99961.77
2024-03-05T15:37:38.023Z,99963.64
2024-03-05T15:40:18.584Z,99967.30
2024-03-05T15:42:53.999Z,99971.56
2024-03-05T15:45:27.256Z,99975.66
2024-03-05T15:47:57.224Z,99978.84
2024-03-05T15:50:31.876Z,99982.78
2024-03-05T15:53:04.554Z,99980.51
2024-03-05T15:55:46.328Z,99988.93
2024-03-05T15:58:42.493Z,99989.20
2024-03-05T16:01:27.779Z,99992.06
2024-03-05T16:04:15.331Z,99995.80
2024-03-05T16:06:53.381Z,99999.71
2024-03-05T16:09:28.654Z,100003.23
2024-03-05T16:11:59.639Z,100003.71
2024-03-05T16:14:48.267Z,100011.44
2024-03-05T16:17:19.371Z,100012.42
2024-03-05T16:19:55.534Z,100013.40
2024-03-05T16:22:24.981Z,100016.36
2024-03-05T16:24:57.334Z,100019.20
2024-03-05T16:27:28.795Z,100019.88
2024-03-05T16:29:58.088Z,100017.77
2024-03-05T16:32:27.790Z,100026.17
2024-03-05T16:35:01.196Z,100029.67
2024-03-05T16:37:37.863Z,100030.39
2024-03-05T16:40:29.274Z,100031.80
2024-03-05T16:43:11.479Z,100044.32
2024-03-05T16:45:41.922Z,100048.48
2024-03-05T16:48:12.056Z,100044.52
2024-03-05T16:50:46.706Z,100050.94
2024-03-05T16:53:16.581Z,100052.63
2024-03-05T16:55:50.629Z,100056.85
2024-03-05T16:58:23.261Z,100061.57
2024-03-05T17:00:54.083Z,100065.26
2024-03-05T17:03:31.638Z,100069.63
2024-03-05T17:06:05.680Z,100071.59
2024-03-05T17:08:36.581Z,100075.77
2024-03-05T17:11:18.259Z,100075.81
2024-03-05T17:13:52.426Z,100076.46
2024-03-05T17:16:26.698Z,100081.52
2024-03-05T17:18:56.852Z,100082.68
2024-03-05T17:21:29.234Z,100082.60
2024-03-05T17:24:01.122Z,100079.55
2024-03-05T17:26:33.052Z,100084.95
2024-03-05T17:29:12.588Z,100083.74
2024-03-05T17:31:50.960Z,100085.44
2024-03-05T17:34:22.787Z,100091.40
2024-03-05T17:36:52.096Z,100091.41
2024-03-05T17:39:26.618Z,100093.97
2024-03-05T17:42:00.484Z,100094.74
2024-03-05T17:44:40.241Z,100094.41
2024-03-05T17:47:13.359Z,100097.12
2024-03-05T17:49:55.694Z,100097.56
2024-03-05T17:52:31.368Z,100102.23
2024-03-05T17:55:06.159Z,100100.77
2024-03-05T17:57:34.625Z,100104.52
2024-03-05T18:00:28.311Z,100108.23
2024-03-05T18:03:03.435Z,100110.14
2024-03-05T18:05:36.774Z,100112.64
2024-03-05T18:08:11.959Z,100115.42
2024-03-05T18:10:45.641Z,100118.23
2024-03-05T18:13:17.050Z,100121.95
2024-03-05T18:15:50.720Z,100119.25
2024-03-05T18:18:31.691Z,100126.10
2024-03-05T18:21:03.694Z,100128.65
2024-03-05T18:23:39.641Z,100126.39
2024-03-05T18:26:13.765Z,100129.31
2024-03-05T18:28:44.814Z,100132.83
2024-03-05T18:31:17.561Z,100129.75
2024-03-05T18:33:56.319Z,100133.67
2024-03-05T18:36:30.042Z,100135.52
2024-03-05T18:39:09.796Z,100138.35
2024-03-05T18:41:40.216Z,100140.14
2024-03-05T18:44:16.104Z,100138.27
2024-03-05T18:46:48.714Z,100139.77
2024-03-05T18:49:24.162Z,100138.87
2024-03-05T18:52:07.583Z,100136.14
2024-03-05T18:54:37.452Z,100138.19
2024-03-05T18:57:09.504Z,100140.29
2024-03-05T18:59:41.663Z,100141.43
2024-03-05T19:02:13.474Z,100141.55
2024-03-05T19:04:44.078Z,100144.10
2024-03-05T19:07:14.481Z,100144.48
2024-03-05T19:09:50.837Z,100146.34
2024-03-05T19:12:30.127Z,100148.77
2024-03-05T19:15:06.083Z,100145.31
2024-03-05T19:17:35.663Z,100147.72
2024-03-05T19:20:11.502Z,100146.72
2024-03-05T19:22:45.619Z,100150.69
2024-03-05T19:25:20.264Z,100152.17
2024-03-05T19:28:01.713Z,100151.20
2024-03-05T19:30:34.086Z,100152.11
2024-03-05T19:33:06.826Z,100157.00
2024-03-05T19:35:46.134Z,100158.00
2024-03-05T19:38:26.750Z,100160.27
2024-03-05T19:40:58.908Z,100158.83
2024-03-05T19:43:30.903Z,100158.58
2024-03-05T19:46:09.708Z,100162.48
2024-03-05T19:48:39.657Z,100167.94
2024-03-05T19:51:14.167Z,100171.41
2024-03-05T19:53:44.319Z,100171.30
2024-03-05T19:56:14.754Z,100173.70
2024-03-05T19:58:44.774Z,100173.38
2024-03-05T20:04:57.385Z,100171.61
2024-03-05T20:07:40.418Z,100177.53
2024-03-05T20:10:23.636Z,100172.85
2024-03-05T20:12:57.647Z,100182.09
2024-03-05T20:15:29.184Z,100178.83
2024-03-05T20:17:58.600Z,100182.65
2024-03-05T20:20:30.130Z,100185.50
2024-03-05T20:23:14.102Z,100184.48
2024-03-05T20:25:48.232Z,100189.09
2024-03-05T20:28:19.621Z,100188.03
2024-03-05T20:30:52.932Z,100183.07
2024-03-05T20:33:41.812Z,100185.97
2024-03-05T20:36:15.635Z,100188.70
2024-03-05T20:39:08.799Z,100192.35
2024-03-05T20:41:45.684Z,100193.72
2024-03-05T20:44:23.131Z,100194.02
2024-03-05T20:47:01.975Z,100190.75
2024-03-05T20:49:53.569Z,100191.16
2024-03-05T20:52:32.717Z,100190.71
2024-03-05T20:55:21.224Z,100190.73
2024-03-05T20:57:53.889Z,100193.33
2024-03-05T21:00:27.276Z,100194.87
2024-03-05T21:03:00.187Z,100199.61
2024-03-05T21:05:31.626Z,100196.02
2024-03-05T21:08:03.379Z,100199.06
2024-03-05T21:10:34.197Z,100199.90
2024-03-05T21:13:10.801Z,100204.46
2024-03-05T21:15:42.344Z,100208.02
2024-03-05T21:18:15.196Z,100213.44
2024-03-05T21:20:51.408Z,100213.67
2024-03-05T21:23:24.436Z,100218.30
2024-03-05T21:26:14.068Z,100217.74
2024-03-05T21:28:58.230Z,100224.89
2024-03-05T21:31:36.660Z,100223.99
2024-03-05T21:34:07.084Z,100226.00
2024-03-05T21:36:51.478Z,100226.91
2024-03-05T21:39:38.989Z,100226.91
2024-03-05T21:42:10.565Z,100224.43
2024-03-05T21:45:00.112Z,100225.72
2024-03-05T21:47:35.060Z,100228.33
2024-03-05T21:50:13.142Z,100229.64
2024-03-05T21:52:53.068Z,100225.95
2024-03-05T21:55:24.984Z,100227.92
2024-03-05T21:57:58.149Z,100235.19
2024-03-05T22:00:37.029Z,100239.36
2024-03-05T22:03:06.755Z,100239.85
2024-03-05T22:05:41.853Z,100239.27
2024-03-05T22:08:25.111Z,100238.61
2024-03-05T22:10:55.545Z,100239.55
2024-03-05T22:13:24.760Z,100242.02
2024-03-05T22:15:57.092Z,100242.06
2024-03-05T22:18:29.578Z,100241.65
2024-03-05T22:21:06.256Z,100243.54
2024-03-05T22:24:00.691Z,100244.38
2024-03-05T22:26:49.256Z,100244.45
2024-03-05T22:29:27.033Z,100240.16
2024-03-05T22:31:57.697Z,100244.41
2024-03-05T22:34:33.431Z,100244.23
2024-03-05T22:37:30.649Z,100242.14
2024-03-05T22:40:10.299Z,100239.39
2024-03-05T22:42:40.968Z,100244.14
2024-03-05T22:45:19.218Z,100242.51
2024-03-05T22:48:03.529Z,100241.92
2024-03-05T22:50:58.992Z,100242.73
2024-03-05T22:53:49.394Z,100249.41
2024-03-05T22:56:25.190Z,100245.15
2024-03-05T22:58:57.021Z,100255.80
2024-03-05T23:01:37.453Z,100254.02
2024-03-05T23:04:07.953Z,100259.77
2024-03-05T23:06:37.738Z,100264.78
2024-03-05T23:09:09.050Z,100268.79
2024-03-05T23:11:43.409Z,100266.77
2024-03-05T23:14:19.838Z,100269.90
2024-03-05T23:16:52.709Z,100268.93
2024-03-05T23:19:24.080Z,100268.52
2024-03-05T23:21:54.613Z,100266.63
2024-03-05T23:24:24.685Z,100268.95
2024-03-05T23:27:00.859Z,100267.63
2024-03-05T23:29:35.415Z,100268.59
2024-03-05T23:32:05.248Z,100268.03
2024-03-05T23:34:38.749Z,100268.46
2024-03-05T23:37:15.391Z,100263.63
2024-03-05T23:39:49.075Z,100267.73
2024-03-05T23:42:20.341Z,100271.31
2024-03-05T23:44:50.042Z,100266.48
2024-03-05T23:47:26.705Z,100271.58
2024-03-05T23:50:02.762Z,100273.79
2024-03-05T23:52:35.131Z,100275.07
2024-03-05T23:55:07.481Z,100276.30
2024-03-05T23:57:45.950Z,100280.76
